Maxwell Air Force Base Montgomery US
ICAO: KMXF
IATA: MXF
Category: Medium
Scheduled Services: No

Elevation: 171 ft
TransAlt. 18000 ft.

Airport Communications:
MONTGOMERY APP/DEP:121.2
ATIS:134.7
GND:127.15
PMSV METRO:34.23
42 ABW COMD POST:23.46
AFRC 908AW COMD POST:39.69
PTD:122.85
TWR:118.15

KMXF Zoom In..

Runways:

(A) RW 15 length 8013 ft width 150 ft
ILS 109.30 / hdg 149

(B) RW 33 length 8013 ft width 150 ft
---- / hdg 329

Location; KMXF
Day. 05 / Time. 13.56 Zulu
* Altimeter: 30.02
* Temperature: 27° c. 80.6°f.
* Wind from: 270° Speed 04 kn.
Dewpoint: 22° c.
Visibility: 10 Statute Miles.
Clouds: Clear (automated report).

KMXF 051356Z AUTO 27004KT 10SM CLR 27/22 A3002 RMK AO2 SLP167 T02740221 $


Wind From 270°
Speed 04 kn.

 
 
jpsmedia worldairports.se 2020   terms of use